Time;durP1;ratioP1;P1;durP2;ratioP2;P2;SDS_P1;SDS_P2;PMS_P1;PMS_P2;Temp;Humidity;BMP_temperature;BMP_pressure;BME280_temperature;BME280_humidity;BME280_pressure;Samples;Min_cycle;Max_cycle;Signal;HPM_P1;HPM_P2
2023/08/08 00:00:14;;;;;;;6.97;1.85;;;;;;;;;;5040617;28;20350;-75
2023/08/08 00:02:42;;;;;;;4.63;1.85;;;;;;;;;;5032213;28;20059;-75
2023/08/08 00:05:08;;;;;;;6.63;2.03;;;;;;;;;;5041203;28;20522;-76
2023/08/08 00:07:34;;;;;;;3.40;1.90;;;;;;;;;;5052714;28;20032;-76
2023/08/08 00:10:00;;;;;;;6.47;1.85;;;;;;;;;;5052118;28;20029;-76
2023/08/08 00:12:26;;;;;;;5.68;1.80;;;;;;;;;;5052064;28;20021;-76
2023/08/08 00:14:52;;;;;;;6.40;2.05;;;;;;;;;;5052043;28;20025;-76
2023/08/08 00:17:18;;;;;;;4.85;1.90;;;;;;;;;;5050730;28;20029;-76
2023/08/08 00:19:44;;;;;;;5.05;2.03;;;;;;;;;;5052066;28;20021;-76
2023/08/08 00:22:10;;;;;;;2.47;1.55;;;;;;;;;;5051417;28;20048;-76
2023/08/08 00:24:36;;;;;;;3.40;2.00;;;;;;;;;;5051992;28;20068;-76
2023/08/08 00:27:02;;;;;;;3.20;2.15;;;;;;;;;;5051980;28;20025;-75
2023/08/08 00:29:28;;;;;;;5.55;2.03;;;;;;;;;;5051978;28;20104;-76
2023/08/08 00:31:55;;;;;;;2.10;1.50;;;;;;;;;;5051879;28;20575;-76
2023/08/08 00:34:21;;;;;;;6.13;1.70;;;;;;;;;;5052320;28;20025;-76
2023/08/08 00:36:47;;;;;;;6.10;2.28;;;;;;;;;;5051962;28;20040;-76
2023/08/08 00:39:13;;;;;;;11.00;3.30;;;;;;;;;;5051946;28;20104;-76
2023/08/08 00:41:39;;;;;;;3.65;1.80;;;;;;;;;;5052218;28;20025;-76
2023/08/08 00:44:05;;;;;;;3.75;2.13;;;;;;;;;;5046751;28;20033;-76
2023/08/08 00:46:32;;;;;;;5.80;2.20;;;;;;;;;;5044069;28;20056;-76
2023/08/08 00:48:58;;;;;;;4.45;1.85;;;;;;;;;;5051765;28;20033;-76
2023/08/08 00:51:24;;;;;;;6.88;2.85;;;;;;;;;;5051821;28;20031;-76
2023/08/08 00:53:50;;;;;;;4.00;2.20;;;;;;;;;;5051823;28;20023;-76
2023/08/08 00:56:17;;;;;;;5.82;1.95;;;;;;;;;;5051714;28;20029;-76
2023/08/08 00:58:46;;;;;;;7.05;2.35;;;;;;;;;;5055035;28;20033;-76
2023/08/08 01:01:13;;;;;;;7.15;1.80;;;;;;;;;;5055424;28;20025;-76
2023/08/08 01:03:39;;;;;;;4.07;1.52;;;;;;;;;;5055400;28;20048;-76
2023/08/08 01:06:14;;;;;;;4.90;1.90;;;;;;;;;;5055570;28;20522;-76
2023/08/08 01:08:42;;;;;;;8.35;1.90;;;;;;;;;;5035390;28;20440;-76
2023/08/08 01:11:09;;;;;;;4.55;1.80;;;;;;;;;;5035371;28;20033;-76
2023/08/08 01:13:36;;;;;;;6.82;2.17;;;;;;;;;;5042415;28;20020;-76
2023/08/08 01:16:03;;;;;;;4.30;1.80;;;;;;;;;;5055085;28;20112;-76
2023/08/08 01:18:29;;;;;;;6.70;1.60;;;;;;;;;;5055002;28;20037;-76
2023/08/08 01:20:56;;;;;;;4.88;1.70;;;;;;;;;;5054949;28;20028;-75
2023/08/08 01:23:29;;;;;;;3.22;1.50;;;;;;;;;;5054641;28;20094;-76
2023/08/08 01:25:56;;;;;;;5.95;2.03;;;;;;;;;;5055048;28;20048;-76
2023/08/08 01:28:22;;;;;;;3.70;1.50;;;;;;;;;;5055043;28;20029;-76
2023/08/08 01:30:49;;;;;;;4.32;1.52;;;;;;;;;;5054819;28;20021;-76
2023/08/08 01:33:15;;;;;;;2.75;1.60;;;;;;;;;;5054852;28;20100;-76
2023/08/08 01:35:44;;;;;;;5.53;1.42;;;;;;;;;;5054729;28;20144;-76
2023/08/08 01:38:18;;;;;;;6.17;1.57;;;;;;;;;;5054848;28;20029;-76
2023/08/08 01:40:45;;;;;;;5.57;1.80;;;;;;;;;;5054724;28;20258;-76
2023/08/08 01:43:11;;;;;;;6.95;1.70;;;;;;;;;;5054706;28;20171;-76
2023/08/08 01:45:37;;;;;;;4.68;1.70;;;;;;;;;;5054634;28;20484;-76
2023/08/08 01:48:11;;;;;;;2.30;1.48;;;;;;;;;;5054510;28;20024;-76
2023/08/08 01:50:37;;;;;;;5.75;1.77;;;;;;;;;;5054504;28;20429;-75
2023/08/08 01:53:04;;;;;;;7.28;1.75;;;;;;;;;;5054476;28;20021;-76
2023/08/08 01:55:30;;;;;;;4.05;1.60;;;;;;;;;;5054462;28;20018;-75
2023/08/08 01:57:56;;;;;;;5.75;1.50;;;;;;;;;;5054314;28;20065;-76
2023/08/08 02:00:22;;;;;;;4.40;1.70;;;;;;;;;;5054412;28;20075;-76
2023/08/08 02:02:48;;;;;;;3.65;1.70;;;;;;;;;;5054158;28;20021;-76
2023/08/08 02:05:15;;;;;;;4.70;1.73;;;;;;;;;;5054088;28;20033;-76
2023/08/08 02:07:41;;;;;;;7.50;2.15;;;;;;;;;;5054297;28;20329;-76
2023/08/08 02:10:07;;;;;;;5.10;1.50;;;;;;;;;;5053968;28;20521;-76
2023/08/08 02:12:33;;;;;;;4.05;1.40;;;;;;;;;;5054167;28;20059;-76
2023/08/08 02:14:59;;;;;;;4.65;1.40;;;;;;;;;;5053969;28;20044;-76
2023/08/08 02:17:26;;;;;;;6.50;1.50;;;;;;;;;;5053941;28;20568;-76
2023/08/08 02:19:52;;;;;;;7.07;1.50;;;;;;;;;;5054020;28;20021;-76
2023/08/08 02:22:18;;;;;;;6.43;1.42;;;;;;;;;;5053977;28;20407;-76
2023/08/08 02:24:44;;;;;;;5.47;1.20;;;;;;;;;;5053905;28;20631;-76
2023/08/08 02:27:12;;;;;;;2.45;1.40;;;;;;;;;;5052554;28;20108;-76
2023/08/08 02:29:38;;;;;;;7.47;1.50;;;;;;;;;;5053738;28;20041;-76
2023/08/08 02:32:04;;;;;;;5.50;1.83;;;;;;;;;;5053735;28;20067;-76
2023/08/08 02:34:30;;;;;;;6.47;1.30;;;;;;;;;;5053863;28;20021;-76
2023/08/08 02:36:56;;;;;;;5.95;1.40;;;;;;;;;;5053692;28;20368;-76
2023/08/08 02:39:22;;;;;;;4.38;1.75;;;;;;;;;;5053507;28;20048;-76
2023/08/08 02:41:48;;;;;;;7.65;1.33;;;;;;;;;;5053529;28;20107;-76
2023/08/08 02:44:14;;;;;;;3.60;1.50;;;;;;;;;;5053490;28;20032;-76
2023/08/08 02:46:40;;;;;;;4.82;1.40;;;;;;;;;;5053441;28;20032;-76
2023/08/08 02:49:06;;;;;;;4.05;1.38;;;;;;;;;;5053385;28;20483;-76
2023/08/08 02:51:32;;;;;;;4.13;1.75;;;;;;;;;;5053331;28;20025;-76
2023/08/08 02:53:58;;;;;;;2.67;1.40;;;;;;;;;;5053266;28;20090;-76
2023/08/08 02:56:24;;;;;;;3.90;1.40;;;;;;;;;;5053232;28;20032;-76
2023/08/08 02:58:50;;;;;;;5.22;1.30;;;;;;;;;;5053108;28;20033;-76
2023/08/08 03:01:16;;;;;;;4.55;1.67;;;;;;;;;;5053260;28;20028;-76
2023/08/08 03:03:42;;;;;;;2.55;1.35;;;;;;;;;;5053216;28;20033;-76
2023/08/08 03:06:08;;;;;;;5.72;1.20;;;;;;;;;;5053101;28;20025;-76
2023/08/08 03:08:34;;;;;;;9.18;1.48;;;;;;;;;;5033552;28;20032;-76
2023/08/08 03:11:00;;;;;;;3.05;1.00;;;;;;;;;;5045873;28;20100;-75
2023/08/08 03:13:26;;;;;;;7.90;1.58;;;;;;;;;;5052774;28;20100;-76
2023/08/08 03:15:52;;;;;;;5.38;1.50;;;;;;;;;;5052813;28;20025;-76
2023/08/08 03:18:18;;;;;;;1.92;0.85;;;;;;;;;;5053116;28;20040;-76
2023/08/08 03:20:45;;;;;;;3.58;1.00;;;;;;;;;;5052160;28;20104;-76
2023/08/08 03:23:11;;;;;;;2.92;1.02;;;;;;;;;;5052587;28;20071;-76
2023/08/08 03:25:37;;;;;;;7.55;1.00;;;;;;;;;;5052712;28;20468;-76
2023/08/08 03:28:03;;;;;;;5.57;1.20;;;;;;;;;;5052671;28;20037;-76
2023/08/08 03:30:29;;;;;;;4.25;1.05;;;;;;;;;;5052667;28;20025;-76
2023/08/08 03:32:55;;;;;;;2.15;0.60;;;;;;;;;;5052735;28;20032;-76
2023/08/08 03:35:20;;;;;;;4.22;0.90;;;;;;;;;;5052784;28;20025;-76
2023/08/08 03:37:46;;;;;;;1.20;0.70;;;;;;;;;;5052557;28;20132;-76
2023/08/08 03:40:15;;;;;;;3.30;1.20;;;;;;;;;;5052730;28;20025;-76
2023/08/08 03:42:42;;;;;;;2.83;0.60;;;;;;;;;;5052584;28;20090;-76
2023/08/08 03:45:08;;;;;;;3.53;0.80;;;;;;;;;;5052755;28;20445;-76
2023/08/08 03:47:34;;;;;;;2.28;0.70;;;;;;;;;;5052520;28;20090;-75
2023/08/08 03:50:00;;;;;;;3.40;1.00;;;;;;;;;;5052319;28;20048;-76
2023/08/08 03:52:26;;;;;;;4.85;0.60;;;;;;;;;;5052390;28;20029;-76
2023/08/08 03:54:52;;;;;;;2.53;0.60;;;;;;;;;;5052232;28;20056;-75
2023/08/08 03:57:18;;;;;;;1.35;0.60;;;;;;;;;;5052248;28;20024;-76
2023/08/08 03:59:44;;;;;;;4.18;0.80;;;;;;;;;;5052103;28;20033;-76
2023/08/08 04:02:11;;;;;;;1.45;0.68;;;;;;;;;;5052166;28;20037;-76
2023/08/08 04:04:38;;;;;;;2.08;0.90;;;;;;;;;;5052174;28;20029;-75
2023/08/08 04:07:04;;;;;;;4.15;1.27;;;;;;;;;;5052410;28;20017;-76
2023/08/08 04:09:31;;;;;;;5.32;0.77;;;;;;;;;;5052282;28;20063;-76
2023/08/08 04:11:57;;;;;;;3.63;0.70;;;;;;;;;;5052227;28;20028;-76
2023/08/08 04:14:23;;;;;;;3.75;0.90;;;;;;;;;;5052048;28;20021;-75
2023/08/08 04:16:49;;;;;;;3.25;1.35;;;;;;;;;;5051780;28;20017;-75
2023/08/08 04:19:15;;;;;;;4.88;1.17;;;;;;;;;;5052021;28;20387;-76
2023/08/08 04:21:41;;;;;;;4.35;0.85;;;;;;;;;;5051459;28;20056;-76
2023/08/08 04:24:07;;;;;;;4.55;0.80;;;;;;;;;;5052315;28;20452;-76
2023/08/08 04:26:34;;;;;;;3.03;1.10;;;;;;;;;;5052392;28;20044;-75
2023/08/08 04:29:00;;;;;;;3.47;1.00;;;;;;;;;;5051959;28;20456;-75
2023/08/08 04:31:26;;;;;;;3.08;0.90;;;;;;;;;;5051893;28;20099;-75
2023/08/08 04:33:58;;;;;;;3.97;1.27;;;;;;;;;;5056009;28;20025;-75
2023/08/08 04:36:24;;;;;;;3.53;1.10;;;;;;;;;;5056276;28;20074;-76
2023/08/08 04:38:50;;;;;;;4.32;1.00;;;;;;;;;;5055787;28;20033;-76
2023/08/08 04:41:16;;;;;;;2.90;0.90;;;;;;;;;;5055909;28;20017;-75
2023/08/08 04:43:42;;;;;;;4.30;1.17;;;;;;;;;;5055856;28;20532;-75
2023/08/08 04:46:09;;;;;;;5.90;1.15;;;;;;;;;;5055649;28;20029;-76
2023/08/08 04:48:37;;;;;;;6.90;1.25;;;;;;;;;;5055980;28;20025;-76
2023/08/08 04:51:03;;;;;;;5.30;0.95;;;;;;;;;;5055785;28;20024;-75
2023/08/08 04:53:29;;;;;;;4.50;1.17;;;;;;;;;;5055697;28;20029;-75
2023/08/08 04:55:55;;;;;;;5.93;1.13;;;;;;;;;;5055564;28;20021;-76
2023/08/08 04:58:21;;;;;;;4.60;1.30;;;;;;;;;;5055685;28;20029;-76
2023/08/08 05:00:47;;;;;;;4.57;1.00;;;;;;;;;;5055389;28;20356;-76
2023/08/08 05:03:13;;;;;;;6.97;1.08;;;;;;;;;;5055529;28;20036;-76
2023/08/08 05:05:39;;;;;;;3.83;0.85;;;;;;;;;;5055416;28;20497;-76
2023/08/08 05:08:05;;;;;;;2.60;1.27;;;;;;;;;;5055287;28;20127;-76
2023/08/08 05:10:31;;;;;;;3.08;0.93;;;;;;;;;;5055326;28;20104;-76
2023/08/08 05:12:58;;;;;;;5.13;0.90;;;;;;;;;;5055072;28;20110;-76
2023/08/08 05:15:23;;;;;;;3.33;1.00;;;;;;;;;;5055279;28;20031;-76
2023/08/08 05:17:51;;;;;;;2.35;0.70;;;;;;;;;;5054991;28;20025;-75
2023/08/08 05:20:17;;;;;;;3.10;0.90;;;;;;;;;;5055410;28;20017;-75
2023/08/08 05:22:43;;;;;;;2.83;0.63;;;;;;;;;;5052413;28;20127;-76
2023/08/08 05:25:09;;;;;;;2.40;1.10;;;;;;;;;;5054961;28;20527;-76
2023/08/08 05:27:35;;;;;;;3.75;0.90;;;;;;;;;;5054873;28;20027;-76
2023/08/08 05:30:01;;;;;;;3.97;1.05;;;;;;;;;;5054850;28;20100;-76
2023/08/08 05:32:27;;;;;;;3.08;1.05;;;;;;;;;;5054900;28;20029;-76
2023/08/08 05:34:55;;;;;;;6.28;0.88;;;;;;;;;;5054716;28;20025;-76
2023/08/08 05:37:21;;;;;;;3.70;1.00;;;;;;;;;;5055020;28;20021;-76
2023/08/08 05:39:47;;;;;;;5.50;0.80;;;;;;;;;;5054672;28;20037;-76
2023/08/08 05:42:13;;;;;;;3.13;0.80;;;;;;;;;;5054632;28;20033;-76
2023/08/08 05:44:41;;;;;;;3.67;0.85;;;;;;;;;;5054307;28;20017;-76
2023/08/08 05:47:07;;;;;;;3.70;0.65;;;;;;;;;;5054920;28;20049;-76
2023/08/08 05:49:33;;;;;;;2.55;0.75;;;;;;;;;;5054535;28;20440;-76
2023/08/08 05:51:59;;;;;;;3.75;0.73;;;;;;;;;;5054472;28;20059;-76
2023/08/08 05:54:25;;;;;;;4.45;0.75;;;;;;;;;;5054494;28;20036;-76
2023/08/08 05:56:51;;;;;;;6.43;1.13;;;;;;;;;;5054400;28;20032;-76
2023/08/08 05:59:17;;;;;;;4.35;0.90;;;;;;;;;;5054368;28;20075;-76
2023/08/08 06:01:45;;;;;;;2.88;0.50;;;;;;;;;;5054205;28;20060;-76
2023/08/08 06:04:11;;;;;;;4.05;0.70;;;;;;;;;;5054711;28;20063;-77
2023/08/08 06:06:36;;;;;;;2.35;0.65;;;;;;;;;;5054268;28;20048;-76
2023/08/08 06:09:02;;;;;;;4.80;0.88;;;;;;;;;;5054050;28;20055;-76
2023/08/08 06:11:28;;;;;;;4.53;0.70;;;;;;;;;;5054136;28;20083;-77
2023/08/08 06:13:55;;;;;;;4.07;0.77;;;;;;;;;;5053873;28;20033;-76
2023/08/08 06:16:21;;;;;;;4.05;0.80;;;;;;;;;;5037454;28;20052;-76
2023/08/08 06:18:47;;;;;;;6.47;1.02;;;;;;;;;;5049173;28;20038;-77
2023/08/08 06:21:13;;;;;;;3.58;0.80;;;;;;;;;;5050051;28;20083;-77
2023/08/08 06:23:39;;;;;;;3.25;0.73;;;;;;;;;;5043210;28;20049;-77
2023/08/08 06:26:06;;;;;;;5.53;1.05;;;;;;;;;;5034316;28;20025;-77
2023/08/08 06:28:32;;;;;;;3.95;0.75;;;;;;;;;;5034205;28;20040;-77
2023/08/08 06:30:59;;;;;;;3.38;0.95;;;;;;;;;;5051012;28;20024;-77
2023/08/08 06:33:25;;;;;;;3.28;0.73;;;;;;;;;;5053999;28;20040;-77
2023/08/08 06:35:51;;;;;;;2.60;0.70;;;;;;;;;;5053865;28;20444;-77
2023/08/08 06:38:17;;;;;;;2.13;0.80;;;;;;;;;;5053710;28;20037;-77
2023/08/08 06:40:43;;;;;;;2.33;0.80;;;;;;;;;;5053816;28;20440;-77
2023/08/08 06:43:09;;;;;;;3.30;0.65;;;;;;;;;;5053442;28;20059;-77
2023/08/08 06:45:36;;;;;;;4.78;1.00;;;;;;;;;;5053446;28;20082;-76
2023/08/08 06:48:02;;;;;;;3.63;0.63;;;;;;;;;;5053823;28;20036;-76
2023/08/08 06:50:28;;;;;;;4.43;1.10;;;;;;;;;;5053638;28;20574;-76
2023/08/08 06:52:54;;;;;;;3.45;0.93;;;;;;;;;;5053267;28;20055;-76
2023/08/08 06:55:20;;;;;;;3.95;0.75;;;;;;;;;;5052545;28;20021;-76
2023/08/08 06:57:46;;;;;;;4.80;1.05;;;;;;;;;;5053219;28;20032;-77
2023/08/08 07:00:13;;;;;;;2.92;0.80;;;;;;;;;;5053203;28;20077;-76
2023/08/08 07:02:39;;;;;;;3.65;0.82;;;;;;;;;;5053226;28;20384;-76
2023/08/08 07:05:06;;;;;;;5.57;0.73;;;;;;;;;;5053086;28;20492;-76
2023/08/08 07:07:33;;;;;;;2.65;1.13;;;;;;;;;;5053155;28;20464;-76
2023/08/08 07:09:59;;;;;;;3.67;0.70;;;;;;;;;;5053298;28;20059;-76
2023/08/08 07:12:25;;;;;;;3.45;1.00;;;;;;;;;;5053023;28;20029;-76
2023/08/08 07:14:53;;;;;;;2.03;0.70;;;;;;;;;;5052871;28;20499;-76
2023/08/08 07:17:19;;;;;;;3.90;0.70;;;;;;;;;;5053185;28;20474;-76
2023/08/08 07:19:45;;;;;;;4.18;0.80;;;;;;;;;;5052819;28;20017;-77
2023/08/08 07:22:11;;;;;;;4.05;0.80;;;;;;;;;;5051810;28;20476;-76
2023/08/08 07:24:38;;;;;;;4.10;1.00;;;;;;;;;;5052625;28;20079;-76
2023/08/08 07:27:04;;;;;;;5.60;0.90;;;;;;;;;;5051148;28;20472;-76
2023/08/08 07:29:31;;;;;;;5.25;0.80;;;;;;;;;;5052495;28;20095;-76
2023/08/08 07:31:58;;;;;;;3.13;0.80;;;;;;;;;;5051729;28;20029;-76
2023/08/08 07:34:24;;;;;;;5.05;0.82;;;;;;;;;;5052692;28;20079;-76
2023/08/08 07:36:50;;;;;;;2.70;0.77;;;;;;;;;;5052875;28;20028;-76
2023/08/08 07:39:17;;;;;;;2.63;0.70;;;;;;;;;;5052608;28;20407;-76
2023/08/08 07:41:43;;;;;;;5.55;1.00;;;;;;;;;;5052574;28;20017;-76
2023/08/08 07:44:09;;;;;;;5.72;0.85;;;;;;;;;;5052523;28;20074;-76
2023/08/08 07:46:35;;;;;;;3.80;0.80;;;;;;;;;;5052449;28;20032;-76
2023/08/08 07:49:03;;;;;;;5.10;1.10;;;;;;;;;;5052338;28;20112;-76
2023/08/08 07:51:29;;;;;;;4.32;0.88;;;;;;;;;;5052643;28;20031;-76
2023/08/08 07:53:55;;;;;;;3.38;0.63;;;;;;;;;;5052330;28;20475;-76
2023/08/08 07:56:21;;;;;;;3.65;1.00;;;;;;;;;;5052289;28;20471;-76
2023/08/08 07:58:47;;;;;;;6.57;1.33;;;;;;;;;;5052251;28;20124;-76
2023/08/08 08:01:13;;;;;;;5.30;0.98;;;;;;;;;;5052302;28;20021;-76
2023/08/08 08:03:40;;;;;;;3.78;0.95;;;;;;;;;;5052354;28;20376;-76
2023/08/08 08:06:06;;;;;;;4.43;0.95;;;;;;;;;;5052081;28;20033;-76
2023/08/08 08:08:32;;;;;;;2.88;0.60;;;;;;;;;;5052432;28;20033;-76
2023/08/08 08:10:58;;;;;;;3.53;0.98;;;;;;;;;;5052408;28;20661;-77
2023/08/08 08:13:24;;;;;;;3.97;1.05;;;;;;;;;;5052329;28;20021;-77
2023/08/08 08:15:51;;;;;;;2.97;0.82;;;;;;;;;;5052058;28;20079;-77
2023/08/08 08:18:17;;;;;;;3.28;0.70;;;;;;;;;;5052380;28;20520;-77
2023/08/08 08:20:46;;;;;;;1.77;0.40;;;;;;;;;;5052211;28;20025;-76
2023/08/08 08:23:12;;;;;;;3.78;0.80;;;;;;;;;;5051793;28;20051;-76
2023/08/08 08:25:38;;;;;;;2.47;0.80;;;;;;;;;;5052147;28;20060;-77
2023/08/08 08:28:05;;;;;;;4.05;0.63;;;;;;;;;;5052068;28;20055;-77
2023/08/08 08:30:31;;;;;;;4.30;1.52;;;;;;;;;;5051890;28;20025;-76
2023/08/08 08:32:57;;;;;;;5.15;0.98;;;;;;;;;;5052190;28;20025;-76
2023/08/08 08:35:23;;;;;;;3.63;0.70;;;;;;;;;;5051941;28;20021;-76
2023/08/08 08:37:49;;;;;;;3.70;0.60;;;;;;;;;;5052024;28;20033;-76
2023/08/08 08:40:15;;;;;;;2.40;0.77;;;;;;;;;;5051864;28;20025;-76
2023/08/08 08:42:42;;;;;;;2.50;0.70;;;;;;;;;;5037902;28;20096;-76
2023/08/08 08:45:09;;;;;;;3.13;0.70;;;;;;;;;;5051855;28;20223;-76
2023/08/08 08:47:36;;;;;;;3.13;0.90;;;;;;;;;;5051757;28;20036;-76
2023/08/08 08:50:03;;;;;;;3.60;0.90;;;;;;;;;;5051718;28;20104;-77
2023/08/08 08:52:30;;;;;;;4.90;0.98;;;;;;;;;;5051695;28;20151;-76
2023/08/08 08:54:56;;;;;;;4.30;1.40;;;;;;;;;;5051745;28;20070;-76
2023/08/08 08:57:25;;;;;;;5.78;0.90;;;;;;;;;;5051728;28;20028;-77
2023/08/08 08:59:52;;;;;;;5.07;0.90;;;;;;;;;;5051658;28;20060;-77
2023/08/08 09:02:18;;;;;;;3.45;1.08;;;;;;;;;;5051626;28;20032;-75
2023/08/08 09:04:45;;;;;;;6.15;1.05;;;;;;;;;;5051450;28;20048;-76
2023/08/08 09:07:12;;;;;;;3.42;0.90;;;;;;;;;;5051330;28;20025;-76
2023/08/08 09:09:38;;;;;;;2.58;0.95;;;;;;;;;;5050107;28;20029;-76
2023/08/08 09:12:05;;;;;;;2.10;0.80;;;;;;;;;;5051626;28;20570;-76
2023/08/08 09:14:31;;;;;;;5.22;0.88;;;;;;;;;;5051469;28;20048;-76
2023/08/08 09:16:57;;;;;;;2.92;0.95;;;;;;;;;;5050274;28;20507;-76
2023/08/08 09:19:24;;;;;;;4.50;1.10;;;;;;;;;;5054505;28;20040;-76
2023/08/08 09:21:50;;;;;;;4.70;1.10;;;;;;;;;;5055023;28;20468;-76
2023/08/08 09:24:17;;;;;;;2.85;1.20;;;;;;;;;;5055152;28;20075;-76
2023/08/08 09:26:43;;;;;;;5.53;1.00;;;;;;;;;;5055171;28;20440;-76
2023/08/08 09:29:10;;;;;;;7.70;1.15;;;;;;;;;;5055162;28;20091;-76
2023/08/08 09:31:36;;;;;;;7.75;1.20;;;;;;;;;;5055067;28;20396;-76
2023/08/08 09:34:04;;;;;;;6.75;1.35;;;;;;;;;;5054870;28;20542;-76
2023/08/08 09:36:30;;;;;;;3.92;0.98;;;;;;;;;;5055138;28;20031;-76
2023/08/08 09:38:56;;;;;;;5.32;0.93;;;;;;;;;;5054703;28;20108;-76
2023/08/08 09:41:22;;;;;;;3.40;0.90;;;;;;;;;;5055201;28;20033;-76
2023/08/08 09:43:49;;;;;;;1.83;0.82;;;;;;;;;;5054715;28;20021;-76
2023/08/08 09:46:18;;;;;;;4.25;1.13;;;;;;;;;;5054714;28;20032;-76
2023/08/08 09:48:44;;;;;;;4.97;1.17;;;;;;;;;;5054550;28;20029;-76
2023/08/08 09:51:11;;;;;;;5.05;1.40;;;;;;;;;;5054670;28;20250;-76
2023/08/08 09:53:37;;;;;;;4.95;1.00;;;;;;;;;;5054453;28;20429;-76
2023/08/08 09:56:04;;;;;;;2.63;1.08;;;;;;;;;;5054511;28;20021;-76
2023/08/08 09:58:30;;;;;;;2.75;0.70;;;;;;;;;;5053053;28;20025;-75
2023/08/08 10:00:56;;;;;;;3.47;0.77;;;;;;;;;;5054455;28;20059;-76
2023/08/08 10:03:22;;;;;;;3.55;0.80;;;;;;;;;;5054349;28;20479;-76
2023/08/08 10:05:49;;;;;;;4.20;1.20;;;;;;;;;;5054326;28;20240;-76
2023/08/08 10:08:15;;;;;;;4.95;0.80;;;;;;;;;;5054328;28;20457;-76
2023/08/08 10:10:42;;;;;;;4.93;1.15;;;;;;;;;;5054271;28;20025;-76
2023/08/08 10:13:08;;;;;;;2.70;0.98;;;;;;;;;;5054111;28;20108;-76
2023/08/08 10:15:37;;;;;;;2.47;0.90;;;;;;;;;;5054137;28;20128;-75
2023/08/08 10:18:04;;;;;;;2.65;1.08;;;;;;;;;;5054031;28;20082;-76
2023/08/08 10:20:32;;;;;;;4.50;1.33;;;;;;;;;;5053977;28;20025;-76
2023/08/08 10:23:03;;;;;;;3.22;0.90;;;;;;;;;;5053508;28;20110;-76
2023/08/08 10:25:31;;;;;;;3.38;0.90;;;;;;;;;;5054041;28;20093;-76
2023/08/08 10:28:03;;;;;;;4.55;1.00;;;;;;;;;;5053758;28;20013;-76
2023/08/08 10:30:30;;;;;;;5.50;0.95;;;;;;;;;;5053870;28;20136;-76
2023/08/08 10:32:57;;;;;;;4.28;0.93;;;;;;;;;;5053805;28;20036;-76
2023/08/08 10:35:28;;;;;;;5.10;0.70;;;;;;;;;;5054093;28;20059;-76
2023/08/08 10:37:54;;;;;;;4.32;1.02;;;;;;;;;;5053535;28;20021;-76
2023/08/08 10:40:21;;;;;;;2.95;0.82;;;;;;;;;;5053643;28;20056;-76
2023/08/08 10:42:47;;;;;;;3.85;0.80;;;;;;;;;;5053633;28;20028;-76
2023/08/08 10:45:14;;;;;;;4.40;0.90;;;;;;;;;;5053497;28;20087;-76
2023/08/08 10:47:41;;;;;;;6.20;0.80;;;;;;;;;;5053727;28;20686;-76
2023/08/08 10:50:25;;;;;;;2.83;0.70;;;;;;;;;;5053468;28;20028;-76
2023/08/08 10:52:55;;;;;;;2.15;0.60;;;;;;;;;;5053639;28;20033;-76
2023/08/08 10:55:26;;;;;;;3.65;1.00;;;;;;;;;;5053292;28;20031;-76
2023/08/08 10:57:59;;;;;;;4.00;0.80;;;;;;;;;;5053525;28;20573;-75
2023/08/08 11:00:27;;;;;;;5.75;0.85;;;;;;;;;;5053339;28;20078;-76
2023/08/08 11:02:54;;;;;;;5.80;0.90;;;;;;;;;;5051904;28;20379;-76
2023/08/08 11:05:20;;;;;;;7.55;0.85;;;;;;;;;;5053197;28;20021;-76
2023/08/08 11:07:46;;;;;;;4.97;1.20;;;;;;;;;;5053188;28;20028;-76
2023/08/08 11:10:12;;;;;;;3.42;0.90;;;;;;;;;;5053110;28;20076;-76
2023/08/08 11:12:38;;;;;;;2.97;0.82;;;;;;;;;;5052956;28;20433;-76
2023/08/08 11:15:05;;;;;;;5.60;0.90;;;;;;;;;;5052953;28;20361;-76
2023/08/08 11:17:31;;;;;;;3.50;0.82;;;;;;;;;;5052950;28;20475;-76
2023/08/08 11:19:57;;;;;;;5.10;1.00;;;;;;;;;;5052723;28;20029;-76
2023/08/08 11:22:23;;;;;;;2.67;0.90;;;;;;;;;;5051732;28;20049;-76
2023/08/08 11:24:50;;;;;;;3.40;0.88;;;;;;;;;;5052981;28;20109;-76
2023/08/08 11:27:16;;;;;;;4.53;1.00;;;;;;;;;;5052795;28;20021;-76
2023/08/08 11:29:50;;;;;;;4.90;0.95;;;;;;;;;;5052798;28;20032;-76
2023/08/08 11:32:16;;;;;;;2.88;0.85;;;;;;;;;;5053094;28;20021;-76
2023/08/08 11:34:42;;;;;;;4.75;0.85;;;;;;;;;;5052921;28;20099;-76
2023/08/08 11:37:09;;;;;;;6.13;1.05;;;;;;;;;;5052603;28;20100;-76
2023/08/08 11:39:35;;;;;;;3.60;0.90;;;;;;;;;;5052537;28;20043;-76
2023/08/08 11:42:01;;;;;;;3.35;0.90;;;;;;;;;;5052060;28;20033;-76
2023/08/08 11:44:27;;;;;;;2.45;0.65;;;;;;;;;;5043914;28;20518;-76
2023/08/08 11:46:53;;;;;;;3.75;0.80;;;;;;;;;;5032574;28;20018;-75
2023/08/08 11:49:20;;;;;;;3.13;0.75;;;;;;;;;;5032533;28;20037;-76
2023/08/08 11:51:46;;;;;;;4.47;0.88;;;;;;;;;;5032650;28;20049;-76
2023/08/08 11:54:13;;;;;;;3.25;1.10;;;;;;;;;;5032452;28;20021;-76
2023/08/08 11:56:39;;;;;;;1.63;0.70;;;;;;;;;;5032386;28;20045;-75
2023/08/08 11:59:06;;;;;;;3.80;0.88;;;;;;;;;;5032867;28;20113;-75
2023/08/08 12:01:33;;;;;;;4.10;0.70;;;;;;;;;;5032688;28;20025;-76
2023/08/08 12:04:05;;;;;;;4.60;0.75;;;;;;;;;;5032533;28;20087;-75
2023/08/08 12:06:31;;;;;;;3.17;0.80;;;;;;;;;;5049325;28;20483;-76
2023/08/08 12:08:57;;;;;;;2.97;0.90;;;;;;;;;;5052275;28;20052;-76
2023/08/08 12:11:23;;;;;;;7.78;1.08;;;;;;;;;;5052298;28;20029;-76
2023/08/08 12:13:49;;;;;;;7.43;1.50;;;;;;;;;;5052337;28;20025;-76
2023/08/08 12:16:16;;;;;;;2.42;0.80;;;;;;;;;;5052178;28;20028;-76
2023/08/08 12:18:43;;;;;;;3.75;1.02;;;;;;;;;;5052483;28;20037;-76
2023/08/08 12:21:09;;;;;;;4.80;1.20;;;;;;;;;;5052290;28;20364;-76
2023/08/08 12:23:36;;;;;;;2.03;0.65;;;;;;;;;;5050908;28;20118;-76
2023/08/08 12:26:05;;;;;;;4.00;0.90;;;;;;;;;;5052040;28;20480;-76
2023/08/08 12:28:32;;;;;;;2.13;0.93;;;;;;;;;;5052048;28;20110;-76
2023/08/08 12:30:58;;;;;;;5.07;0.85;;;;;;;;;;5051948;28;20016;-76
2023/08/08 12:33:24;;;;;;;3.60;1.00;;;;;;;;;;5052080;28;20021;-76
2023/08/08 12:35:50;;;;;;;5.18;1.23;;;;;;;;;;5051871;28;20116;-76
2023/08/08 12:38:16;;;;;;;2.08;0.88;;;;;;;;;;5051755;28;20116;-75
2023/08/08 12:40:43;;;;;;;6.85;1.15;;;;;;;;;;5051883;28;20108;-76
2023/08/08 12:43:11;;;;;;;3.90;1.00;;;;;;;;;;5051660;28;20529;-76
2023/08/08 12:45:37;;;;;;;2.80;0.70;;;;;;;;;;5052051;28;20028;-75
2023/08/08 12:48:03;;;;;;;3.33;0.95;;;;;;;;;;5052126;28;20032;-76
2023/08/08 12:50:29;;;;;;;5.07;1.55;;;;;;;;;;5051814;28;20025;-75
2023/08/08 12:52:55;;;;;;;4.30;0.95;;;;;;;;;;5052733;28;20025;-76
2023/08/08 12:55:21;;;;;;;4.68;1.02;;;;;;;;;;5055642;28;20041;-75
2023/08/08 12:57:47;;;;;;;4.18;1.10;;;;;;;;;;5055814;28;20040;-75
2023/08/08 13:00:14;;;;;;;4.75;1.00;;;;;;;;;;5055533;28;20481;-76
2023/08/08 13:02:40;;;;;;;4.43;1.00;;;;;;;;;;5055618;28;20021;-75
2023/08/08 13:05:07;;;;;;;3.60;0.90;;;;;;;;;;5055453;28;20349;-76
2023/08/08 13:07:33;;;;;;;2.33;0.90;;;;;;;;;;5055690;28;20025;-76
2023/08/08 13:09:59;;;;;;;4.70;1.20;;;;;;;;;;5055379;28;20440;-76
2023/08/08 13:12:25;;;;;;;5.57;0.90;;;;;;;;;;5055310;28;20079;-76
2023/08/08 13:14:51;;;;;;;3.58;1.02;;;;;;;;;;5055183;28;20040;-75
2023/08/08 13:17:17;;;;;;;3.97;0.77;;;;;;;;;;5055274;28;20025;-75
2023/08/08 13:19:43;;;;;;;4.55;0.88;;;;;;;;;;5055128;28;20025;-75
2023/08/08 13:22:09;;;;;;;5.07;1.10;;;;;;;;;;5054654;28;20118;-76
2023/08/08 13:24:35;;;;;;;2.38;0.70;;;;;;;;;;5055163;28;20036;-76
2023/08/08 13:27:01;;;;;;;3.85;0.63;;;;;;;;;;5055086;28;20040;-75
2023/08/08 13:29:27;;;;;;;5.68;0.90;;;;;;;;;;5055022;28;20028;-76
2023/08/08 13:31:53;;;;;;;3.28;0.80;;;;;;;;;;5054978;28;20029;-75
2023/08/08 13:34:19;;;;;;;4.03;1.20;;;;;;;;;;5054983;28;20033;-75
2023/08/08 13:36:45;;;;;;;2.80;1.00;;;;;;;;;;5054846;28;20039;-75
2023/08/08 13:39:11;;;;;;;5.00;0.90;;;;;;;;;;5054781;28;20025;-75
2023/08/08 13:41:37;;;;;;;3.58;1.13;;;;;;;;;;5054828;28;20356;-75
2023/08/08 13:44:04;;;;;;;4.68;0.82;;;;;;;;;;5055001;28;20029;-75
2023/08/08 13:46:30;;;;;;;6.25;0.95;;;;;;;;;;5054982;28;20033;-76
2023/08/08 13:48:56;;;;;;;3.95;0.80;;;;;;;;;;5054608;28;20035;-75
2023/08/08 13:51:22;;;;;;;5.40;1.40;;;;;;;;;;5054585;28;20021;-75
2023/08/08 13:53:51;;;;;;;4.15;1.00;;;;;;;;;;5054561;28;20092;-75
2023/08/08 13:56:17;;;;;;;3.20;0.90;;;;;;;;;;5054786;28;20517;-75
2023/08/08 13:58:44;;;;;;;6.90;0.75;;;;;;;;;;5054354;28;20116;-75
2023/08/08 14:01:10;;;;;;;8.75;1.48;;;;;;;;;;5054432;28;20037;-75
2023/08/08 14:03:36;;;;;;;4.80;0.90;;;;;;;;;;5053878;28;20055;-75
2023/08/08 14:06:02;;;;;;;2.70;0.82;;;;;;;;;;5054330;28;20094;-75
2023/08/08 14:08:28;;;;;;;2.92;1.10;;;;;;;;;;5054407;28;20048;-75
2023/08/08 14:10:54;;;;;;;2.22;0.75;;;;;;;;;;5054263;28;20376;-75
2023/08/08 14:13:21;;;;;;;5.80;1.38;;;;;;;;;;5054127;28;20021;-75
2023/08/08 14:15:49;;;;;;;3.58;0.90;;;;;;;;;;5054435;28;20021;-75
2023/08/08 14:18:15;;;;;;;3.45;0.60;;;;;;;;;;5054248;28;20082;-75
2023/08/08 14:20:41;;;;;;;1.65;0.60;;;;;;;;;;5054137;28;20025;-75
2023/08/08 14:23:07;;;;;;;3.92;0.82;;;;;;;;;;5053354;28;20064;-76
2023/08/08 14:25:33;;;;;;;4.55;0.98;;;;;;;;;;5053987;28;20029;-75
2023/08/08 14:28:00;;;;;;;6.82;0.80;;;;;;;;;;5053911;28;20021;-76
2023/08/08 14:30:27;;;;;;;6.70;0.90;;;;;;;;;;5054158;28;20025;-75
2023/08/08 14:32:53;;;;;;;3.17;0.73;;;;;;;;;;5054075;28;20511;-75
2023/08/08 14:35:19;;;;;;;2.13;0.73;;;;;;;;;;5053889;28;20096;-75
2023/08/08 14:37:45;;;;;;;3.33;0.63;;;;;;;;;;5053731;28;20143;-75